createdAt,value
2023-02-18T00:00:30.815Z,5
2023-02-18T00:01:37.666Z,5
2023-02-18T00:02:44.558Z,5
2023-02-18T00:03:51.389Z,5
2023-02-18T00:04:58.248Z,4
2023-02-18T00:06:07.078Z,4
2023-02-18T00:07:17.738Z,4
2023-02-18T00:08:24.664Z,5
2023-02-18T00:09:31.452Z,5
2023-02-18T00:10:38.459Z,5
2023-02-18T00:11:46.154Z,5
2023-02-18T00:12:52.964Z,4
2023-02-18T00:13:59.830Z,5
2023-02-18T00:15:06.917Z,5
2023-02-18T00:16:13.913Z,5
2023-02-18T00:17:20.651Z,5
2023-02-18T00:18:27.452Z,6
2023-02-18T00:19:34.362Z,6
2023-02-18T00:20:41.391Z,6
2023-02-18T00:21:48.274Z,5
2023-02-18T00:22:55.148Z,4
2023-02-18T00:24:02.317Z,5
2023-02-18T00:25:09.249Z,6
2023-02-18T00:26:17.977Z,6
2023-02-18T00:27:25.550Z,5
2023-02-18T00:28:32.426Z,5
2023-02-18T00:29:39.313Z,5
2023-02-18T00:30:46.216Z,6
2023-02-18T00:31:53.083Z,7
2023-02-18T00:33:00.687Z,6
2023-02-18T00:34:07.570Z,5
2023-02-18T00:35:14.402Z,6
2023-02-18T00:36:21.263Z,7
2023-02-18T00:37:28.199Z,6
2023-02-18T00:38:35.142Z,6
2023-02-18T00:39:42.950Z,9
2023-02-18T00:40:49.835Z,9
2023-02-18T00:41:57.471Z,8
2023-02-18T00:43:04.488Z,7
2023-02-18T00:44:11.410Z,6
2023-02-18T00:45:18.373Z,6
2023-02-18T00:46:25.733Z,7
2023-02-18T00:47:32.577Z,6
2023-02-18T00:48:39.675Z,6
2023-02-18T00:49:47.354Z,5
2023-02-18T00:50:54.990Z,6
2023-02-18T00:52:01.955Z,5
2023-02-18T00:53:08.929Z,6
2023-02-18T00:54:15.771Z,6
2023-02-18T00:55:23.118Z,7
2023-02-18T00:56:31.546Z,7
2023-02-18T00:57:38.342Z,6
2023-02-18T00:58:45.319Z,4
2023-02-18T00:59:53.106Z,3
2023-02-18T01:00:59.987Z,2
2023-02-18T01:02:06.828Z,2
2023-02-18T01:03:14.572Z,1
2023-02-18T01:04:21.479Z,1
2023-02-18T01:05:28.312Z,1
2023-02-18T01:06:35.230Z,1
2023-02-18T01:07:44.007Z,1
2023-02-18T01:08:50.785Z,1
2023-02-18T01:09:57.700Z,1
2023-02-18T01:11:04.557Z,1
2023-02-18T01:12:12.403Z,1
2023-02-18T01:13:19.293Z,1
2023-02-18T01:14:26.256Z,1
2023-02-18T01:15:33.823Z,1
2023-02-18T01:16:40.732Z,1
2023-02-18T01:17:47.500Z,1
2023-02-18T01:18:54.379Z,1
2023-02-18T01:20:01.212Z,1
2023-02-18T01:21:09.140Z,1
2023-02-18T01:22:16.000Z,1
2023-02-18T01:23:22.895Z,1
2023-02-18T01:24:29.739Z,1
2023-02-18T01:25:37.595Z,1
2023-02-18T01:26:44.592Z,1
2023-02-18T01:27:52.980Z,1
2023-02-18T01:28:59.900Z,1
2023-02-18T01:30:07.718Z,1
2023-02-18T01:31:14.912Z,1
2023-02-18T01:32:22.442Z,1
2023-02-18T01:33:29.240Z,1
2023-02-18T01:34:36.864Z,1
2023-02-18T01:35:43.783Z,1
2023-02-18T01:36:50.791Z,1
2023-02-18T01:37:58.491Z,1
2023-02-18T01:39:06.154Z,1
2023-02-18T01:40:12.961Z,1
2023-02-18T01:41:19.980Z,1
2023-02-18T01:42:26.856Z,2
2023-02-18T01:43:36.582Z,1
2023-02-18T01:44:43.536Z,1
2023-02-18T01:45:50.407Z,2
2023-02-18T01:47:02.302Z,2
2023-02-18T01:48:09.202Z,2
2023-02-18T01:49:19.695Z,1
2023-02-18T01:50:31.602Z,2
2023-02-18T01:51:38.482Z,2
2023-02-18T01:52:47.375Z,1
2023-02-18T01:53:54.263Z,2
2023-02-18T01:55:07.056Z,2
2023-02-18T01:56:13.917Z,2
2023-02-18T01:57:25.433Z,2
2023-02-18T01:58:35.854Z,2
2023-02-18T01:59:42.773Z,2
2023-02-18T02:00:51.445Z,1
2023-02-18T02:01:59.062Z,2
2023-02-18T02:03:05.836Z,2
2023-02-18T02:04:12.657Z,2
2023-02-18T02:05:19.845Z,1
2023-02-18T02:06:26.746Z,2
2023-02-18T02:07:34.546Z,1
2023-02-18T02:08:41.493Z,2
2023-02-18T02:09:48.354Z,2
2023-02-18T02:10:55.329Z,2
2023-02-18T02:12:07.222Z,2
2023-02-18T02:13:20.228Z,2
2023-02-18T02:14:37.140Z,2
2023-02-18T02:15:54.141Z,2
2023-02-18T02:17:05.983Z,2
2023-02-18T02:18:20.748Z,2
2023-02-18T02:19:38.648Z,1
2023-02-18T02:20:57.224Z,2
2023-02-18T02:22:09.536Z,2
2023-02-18T02:23:27.328Z,2
2023-02-18T02:24:44.285Z,3
2023-02-18T02:25:56.188Z,3
2023-02-18T02:27:10.745Z,4
2023-02-18T02:28:17.609Z,4
2023-02-18T02:29:34.556Z,4
2023-02-18T02:30:42.323Z,4
2023-02-18T02:32:00.043Z,4
2023-02-18T02:33:15.069Z,4
2023-02-18T02:34:32.010Z,4
2023-02-18T02:35:49.076Z,4
2023-02-18T02:36:56.698Z,4
2023-02-18T02:38:08.772Z,3
2023-02-18T02:39:15.664Z,3
2023-02-18T02:40:22.552Z,3
2023-02-18T02:41:39.481Z,3
2023-02-18T02:42:46.300Z,3
2023-02-18T02:43:55.988Z,4
2023-02-18T02:45:07.888Z,4
2023-02-18T02:46:24.946Z,5
2023-02-18T02:47:34.442Z,4
2023-02-18T02:48:51.394Z,4
2023-02-18T02:50:08.482Z,3
2023-02-18T02:51:20.431Z,3
2023-02-18T02:52:32.344Z,3
2023-02-18T02:53:45.068Z,2
2023-02-18T02:54:51.947Z,2
2023-02-18T02:55:59.548Z,3
2023-02-18T02:57:06.448Z,2
2023-02-18T02:58:21.326Z,2
2023-02-18T02:59:29.154Z,2
2023-02-18T03:00:36.008Z,2
2023-02-18T03:01:50.711Z,2
2023-02-18T03:03:02.670Z,2
2023-02-18T03:04:15.257Z,2
2023-02-18T03:05:22.113Z,2
2023-02-18T03:06:31.607Z,2
2023-02-18T03:07:43.529Z,1
2023-02-18T03:08:58.500Z,2
2023-02-18T03:10:13.394Z,1
2023-02-18T03:11:20.314Z,1
2023-02-18T03:12:27.174Z,1
2023-02-18T03:13:42.142Z,1
2023-02-18T03:14:57.795Z,1
2023-02-18T03:16:14.810Z,1
2023-02-18T03:17:26.607Z,1
2023-02-18T03:18:33.516Z,1
2023-02-18T03:19:40.342Z,1
2023-02-18T03:20:52.183Z,1
2023-02-18T03:22:06.781Z,1
2023-02-18T03:23:16.949Z,1
2023-02-18T03:24:24.052Z,1
2023-02-18T03:25:33.506Z,1
2023-02-18T03:26:40.413Z,1
2023-02-18T03:27:48.122Z,1
2023-02-18T03:29:00.851Z,1
2023-02-18T03:30:09.384Z,1
2023-02-18T03:31:16.492Z,1
2023-02-18T03:32:23.126Z,1
2023-02-18T03:33:31.110Z,1
2023-02-18T03:34:44.002Z,1
2023-02-18T03:35:50.830Z,0
2023-02-18T03:36:57.769Z,1
2023-02-18T03:38:04.656Z,1
2023-02-18T03:39:16.643Z,1
2023-02-18T03:40:24.302Z,1
2023-02-18T03:41:35.208Z,1
2023-02-18T03:42:41.984Z,1
2023-02-18T03:43:49.724Z,0
2023-02-18T03:44:56.597Z,1
2023-02-18T03:46:03.541Z,1
2023-02-18T03:47:10.416Z,1
2023-02-18T03:48:18.271Z,1
2023-02-18T03:49:25.055Z,1
2023-02-18T03:50:32.681Z,0
2023-02-18T03:51:39.520Z,1
2023-02-18T03:52:46.407Z,1
2023-02-18T03:53:53.473Z,1
2023-02-18T03:55:02.558Z,1
2023-02-18T03:56:09.858Z,1
2023-02-18T03:57:16.479Z,1
2023-02-18T03:58:23.351Z,1
2023-02-18T03:59:30.112Z,1
2023-02-18T04:00:37.117Z,1
2023-02-18T04:01:44.166Z,1
2023-02-18T04:02:51.114Z,1
2023-02-18T04:03:58.074Z,1
2023-02-18T04:05:05.859Z,1
2023-02-18T04:06:13.563Z,1
2023-02-18T04:07:21.573Z,1
2023-02-18T04:08:28.569Z,1
2023-02-18T04:09:35.454Z,1
2023-02-18T04:10:42.504Z,1
2023-02-18T04:11:49.334Z,1
2023-02-18T04:12:56.196Z,1
2023-02-18T04:14:03.120Z,1
2023-02-18T04:15:10.023Z,1
2023-02-18T04:16:16.943Z,1
2023-02-18T04:17:25.361Z,1
2023-02-18T04:18:32.179Z,1
2023-02-18T04:19:39.099Z,1
2023-02-18T04:20:46.062Z,1
2023-02-18T04:21:54.574Z,2
2023-02-18T04:23:03.094Z,1
2023-02-18T04:24:10.264Z,1
2023-02-18T04:25:17.165Z,2
2023-02-18T04:26:24.985Z,2
2023-02-18T04:27:31.860Z,2
2023-02-18T04:28:38.865Z,1
2023-02-18T04:29:46.511Z,1
2023-02-18T04:30:53.717Z,1
2023-02-18T04:32:00.741Z,1
2023-02-18T04:33:08.709Z,1
2023-02-18T04:34:16.648Z,1
2023-02-18T04:35:26.415Z,1
2023-02-18T04:36:33.374Z,1
2023-02-18T04:37:40.166Z,1
2023-02-18T04:38:47.083Z,1
2023-02-18T04:39:53.986Z,1
2023-02-18T04:41:02.893Z,1
2023-02-18T04:42:09.693Z,1
2023-02-18T04:43:16.786Z,2
2023-02-18T04:44:23.598Z,2
2023-02-18T04:45:30.643Z,2
2023-02-18T04:46:37.750Z,2
2023-02-18T04:47:45.468Z,2
2023-02-18T04:48:52.319Z,2
2023-02-18T04:49:59.954Z,2
2023-02-18T04:51:07.783Z,2
2023-02-18T04:52:15.537Z,2
2023-02-18T04:53:23.525Z,2
2023-02-18T04:54:30.384Z,2
2023-02-18T04:55:37.240Z,2
2023-02-18T04:56:44.247Z,3
2023-02-18T04:57:51.103Z,2
2023-02-18T04:58:58.904Z,2
2023-02-18T05:00:06.584Z,1
2023-02-18T05:01:13.758Z,1
2023-02-18T05:02:21.448Z,1
2023-02-18T05:03:29.174Z,1
2023-02-18T05:04:36.874Z,1
2023-02-18T05:05:43.754Z,1
2023-02-18T05:06:51.431Z,1
2023-02-18T05:07:58.318Z,1
2023-02-18T05:09:05.932Z,2
2023-02-18T05:10:12.945Z,2
2023-02-18T05:11:19.880Z,1
2023-02-18T05:12:26.665Z,2
2023-02-18T05:13:33.561Z,1
2023-02-18T05:14:40.432Z,1
2023-02-18T05:15:48.196Z,2
2023-02-18T05:16:55.026Z,1
2023-02-18T05:18:01.928Z,1
2023-02-18T05:19:09.575Z,1
2023-02-18T05:20:19.674Z,1
2023-02-18T05:21:27.346Z,1
2023-02-18T05:22:34.229Z,1
2023-02-18T05:23:41.130Z,1
2023-02-18T05:24:49.174Z,1
2023-02-18T05:25:56.086Z,1
2023-02-18T05:27:02.934Z,1
2023-02-18T05:28:09.795Z,1
2023-02-18T05:29:17.419Z,1
2023-02-18T05:30:24.433Z,2
2023-02-18T05:31:31.327Z,2
2023-02-18T05:32:39.845Z,2
2023-02-18T05:33:46.723Z,3
2023-02-18T05:34:55.157Z,2
2023-02-18T05:36:02.207Z,3
2023-02-18T05:37:09.206Z,3
2023-02-18T05:38:17.654Z,3
2023-02-18T05:39:24.474Z,2
2023-02-18T05:40:31.542Z,2
2023-02-18T05:41:38.480Z,2
2023-02-18T05:42:45.310Z,3
2023-02-18T05:43:52.226Z,2
2023-02-18T05:45:05.745Z,3
2023-02-18T05:46:12.763Z,3
2023-02-18T05:47:20.690Z,2
2023-02-18T05:48:27.493Z,3
2023-02-18T05:49:34.331Z,3
2023-02-18T05:50:41.223Z,1
2023-02-18T05:51:48.049Z,1
2023-02-18T05:52:54.953Z,2
2023-02-18T05:54:01.765Z,3
2023-02-18T05:55:09.639Z,2
2023-02-18T05:56:16.575Z,3
2023-02-18T05:57:23.321Z,1
2023-02-18T05:58:30.205Z,1
2023-02-18T05:59:37.013Z,1
2023-02-18T06:00:44.024Z,1
2023-02-18T06:01:51.669Z,1
2023-02-18T06:02:58.674Z,1
2023-02-18T06:04:05.583Z,2
2023-02-18T06:05:12.446Z,2
2023-02-18T06:06:20.369Z,2
2023-02-18T06:07:27.627Z,1
2023-02-18T06:08:34.621Z,1
2023-02-18T06:09:42.531Z,2
2023-02-18T06:10:49.525Z,2
2023-02-18T06:11:56.441Z,1
2023-02-18T06:13:03.465Z,1
2023-02-18T06:14:11.138Z,1
2023-02-18T06:15:18.785Z,1
2023-02-18T06:16:25.788Z,1
2023-02-18T06:17:34.706Z,1
2023-02-18T06:18:42.414Z,1
2023-02-18T06:19:51.893Z,1
2023-02-18T06:20:59.493Z,1
2023-02-18T06:22:06.499Z,2
2023-02-18T06:23:13.311Z,1
2023-02-18T06:24:20.957Z,1
2023-02-18T06:25:28.609Z,1
2023-02-18T06:26:35.348Z,1
2023-02-18T06:27:42.273Z,2
2023-02-18T06:28:49.077Z,2
2023-02-18T06:29:56.974Z,3
2023-02-18T06:31:05.323Z,3
2023-02-18T06:32:12.208Z,2
2023-02-18T06:33:19.279Z,2
2023-02-18T06:34:26.170Z,2
2023-02-18T06:35:33.186Z,2
2023-02-18T06:36:40.140Z,2
2023-02-18T06:37:47.894Z,1
2023-02-18T06:38:54.813Z,2
2023-02-18T06:40:01.713Z,1
2023-02-18T06:41:08.908Z,1
2023-02-18T06:42:16.606Z,1
2023-02-18T06:43:24.805Z,1
2023-02-18T06:44:31.720Z,1
2023-02-18T06:45:40.284Z,1
2023-02-18T06:46:49.084Z,1
2023-02-18T06:47:57.827Z,1
2023-02-18T06:49:04.726Z,1
2023-02-18T06:50:13.671Z,1
2023-02-18T06:51:20.573Z,1
2023-02-18T06:52:28.241Z,1
2023-02-18T06:53:35.097Z,1
2023-02-18T06:54:43.633Z,1
2023-02-18T06:55:51.343Z,1
2023-02-18T06:56:58.292Z,1
2023-02-18T06:58:05.191Z,1
2023-02-18T06:59:12.082Z,1
2023-02-18T07:00:19.686Z,1
2023-02-18T07:01:28.022Z,2
2023-02-18T07:02:34.884Z,2
2023-02-18T07:03:41.808Z,2
2023-02-18T07:04:51.463Z,2
2023-02-18T07:05:58.351Z,3
2023-02-18T07:07:05.918Z,3
2023-02-18T07:08:14.215Z,3
2023-02-18T07:11:49.202Z,3
2023-02-18T07:12:56.362Z,3
2023-02-18T07:15:55.019Z,3
2023-02-18T07:17:03.168Z,2
2023-02-18T07:18:11.169Z,2
2023-02-18T07:19:18.256Z,2
2023-02-18T07:20:50.959Z,2
2023-02-18T07:23:20.846Z,2
2023-02-18T07:25:58.704Z,1
2023-02-18T07:30:21.750Z,2
2023-02-18T07:31:28.989Z,2
2023-02-18T07:32:36.272Z,2
2023-02-18T07:33:46.338Z,2
2023-02-18T07:35:51.862Z,1
2023-02-18T07:36:59.665Z,2
2023-02-18T07:38:11.186Z,1
2023-02-18T07:39:18.142Z,2
2023-02-18T07:40:26.674Z,2
2023-02-18T07:41:37.452Z,2
2023-02-18T07:42:46.164Z,1
2023-02-18T07:43:54.217Z,1
2023-02-18T07:45:01.418Z,1
2023-02-18T07:46:11.802Z,2
2023-02-18T07:47:18.733Z,2
2023-02-18T07:48:26.766Z,2
2023-02-18T07:49:33.783Z,2
2023-02-18T07:50:41.534Z,2
2023-02-18T07:51:49.030Z,2
2023-02-18T07:52:58.363Z,3
2023-02-18T07:54:05.493Z,3
2023-02-18T07:55:13.574Z,2
2023-02-18T07:56:36.062Z,2
2023-02-18T07:57:44.302Z,2
2023-02-18T07:58:59.061Z,3
2023-02-18T08:00:09.614Z,3
2023-02-18T08:01:19.573Z,2
2023-02-18T08:02:28.015Z,2
2023-02-18T08:03:37.709Z,3
2023-02-18T08:04:44.898Z,3
2023-02-18T08:05:56.186Z,3
2023-02-18T08:07:03.402Z,3
2023-02-18T08:08:13.858Z,3
2023-02-18T08:09:21.698Z,3
2023-02-18T08:10:28.759Z,3
2023-02-18T08:11:48.103Z,3
2023-02-18T08:12:59.586Z,3
2023-02-18T08:14:07.668Z,3
2023-02-18T08:15:15.538Z,3
2023-02-18T08:16:25.477Z,3
2023-02-18T08:17:32.971Z,3
2023-02-18T08:18:40.265Z,3
2023-02-18T08:19:49.031Z,3
2023-02-18T08:20:56.062Z,3
2023-02-18T08:22:03.331Z,3
2023-02-18T08:23:11.064Z,3
2023-02-18T08:24:18.292Z,3
2023-02-18T08:25:30.847Z,3
2023-02-18T08:26:48.637Z,3
2023-02-18T08:27:49.985Z,3
2023-02-18T08:28:57.821Z,4
2023-02-18T08:30:07.771Z,4
2023-02-18T08:31:17.018Z,5
2023-02-18T08:32:30.141Z,8
2023-02-18T08:33:38.684Z,6
2023-02-18T08:34:46.547Z,6
2023-02-18T08:35:54.836Z,6
2023-02-18T08:37:01.744Z,7
2023-02-18T08:38:11.198Z,7
2023-02-18T08:39:29.381Z,9
2023-02-18T08:40:39.218Z,7
2023-02-18T08:41:48.865Z,7
2023-02-18T08:42:57.586Z,8
2023-02-18T08:44:06.258Z,7
2023-02-18T08:45:14.329Z,7
2023-02-18T08:46:25.110Z,8
2023-02-18T08:48:16.459Z,7
2023-02-18T08:48:42.576Z,5
2023-02-18T08:49:49.647Z,5
2023-02-18T08:50:59.664Z,5
2023-02-18T08:52:15.513Z,5
2023-02-18T08:53:22.716Z,5
2023-02-18T08:54:29.893Z,6
2023-02-18T08:55:38.732Z,7
2023-02-18T08:56:46.622Z,6
2023-02-18T08:57:54.765Z,6
2023-02-18T08:59:01.900Z,6
2023-02-18T09:00:10.141Z,7
2023-02-18T09:01:17.848Z,6
2023-02-18T09:02:25.567Z,7
2023-02-18T09:03:33.278Z,7
2023-02-18T09:04:41.485Z,7
2023-02-18T09:05:56.286Z,7
2023-02-18T09:07:07.605Z,7
2023-02-18T09:08:15.005Z,7
2023-02-18T09:09:22.176Z,7
2023-02-18T09:10:29.499Z,7
2023-02-18T09:11:36.983Z,7
2023-02-18T09:12:46.912Z,8
2023-02-18T09:13:54.364Z,8
2023-02-18T09:15:04.395Z,8
2023-02-18T09:16:14.618Z,7
2023-02-18T09:17:23.298Z,7
2023-02-18T09:18:31.084Z,7
2023-02-18T09:19:41.772Z,7
2023-02-18T09:20:48.945Z,7
2023-02-18T09:21:57.296Z,9
2023-02-18T09:23:03.998Z,8
2023-02-18T09:24:11.964Z,7
2023-02-18T09:25:20.945Z,7
2023-02-18T09:26:30.901Z,7
2023-02-18T09:27:38.880Z,6
2023-02-18T09:28:46.091Z,8
2023-02-18T09:29:53.224Z,8
2023-02-18T09:31:01.606Z,7
2023-02-18T09:32:28.940Z,7
2023-02-18T09:33:25.754Z,8
2023-02-18T09:34:33.097Z,7
2023-02-18T09:35:40.220Z,9
2023-02-18T09:36:48.213Z,5
2023-02-18T09:37:58.118Z,5
2023-02-18T09:39:06.385Z,5
2023-02-18T09:40:16.143Z,6
2023-02-18T09:41:29.617Z,5
2023-02-18T09:42:44.806Z,4
2023-02-18T09:43:55.451Z,4
2023-02-18T09:45:03.225Z,7
2023-02-18T09:46:10.621Z,9
2023-02-18T09:47:32.317Z,6
2023-02-18T09:48:40.225Z,4
2023-02-18T09:49:49.918Z,5
2023-02-18T09:51:02.313Z,3
2023-02-18T09:52:49.037Z,1
2023-02-18T09:53:58.409Z,1
2023-02-18T09:55:06.514Z,1
2023-02-18T09:56:18.898Z,1
2023-02-18T09:57:27.218Z,2
2023-02-18T09:58:40.314Z,1
2023-02-18T10:00:00.578Z,2
2023-02-18T10:01:09.403Z,1
2023-02-18T10:02:30.282Z,2
2023-02-18T10:03:40.502Z,2
2023-02-18T10:04:50.566Z,2
2023-02-18T10:05:58.429Z,6
2023-02-18T10:07:13.474Z,3
2023-02-18T10:08:37.842Z,2
2023-02-18T10:09:51.114Z,3
2023-02-18T10:11:01.694Z,3
2023-02-18T10:12:12.141Z,3
2023-02-18T10:13:20.538Z,3
2023-02-18T10:14:31.354Z,6
2023-02-18T10:15:39.029Z,4
2023-02-18T10:16:48.602Z,3
2023-02-18T10:18:07.352Z,4
2023-02-18T10:19:20.231Z,5
2023-02-18T10:20:28.099Z,7
2023-02-18T10:21:37.131Z,6
2023-02-18T10:22:44.984Z,4
2023-02-18T10:23:53.382Z,4
2023-02-18T10:25:06.340Z,2
2023-02-18T10:26:13.540Z,2
2023-02-18T10:27:22.204Z,2
2023-02-18T10:28:34.562Z,4
2023-02-18T10:29:41.719Z,3
2023-02-18T10:30:49.709Z,4
2023-02-18T10:32:02.067Z,4
2023-02-18T10:33:22.649Z,4
2023-02-18T10:34:32.912Z,3
2023-02-18T10:35:45.440Z,4
2023-02-18T10:36:59.760Z,3
2023-02-18T10:38:15.300Z,3
2023-02-18T10:39:30.121Z,3
2023-02-18T10:40:45.817Z,2
2023-02-18T10:42:05.501Z,4
2023-02-18T10:43:21.322Z,3
2023-02-18T10:44:37.468Z,3
2023-02-18T10:45:54.603Z,4
2023-02-18T10:47:11.256Z,3
2023-02-18T10:48:27.751Z,4
2023-02-18T10:49:35.080Z,4
2023-02-18T10:50:53.251Z,3
2023-02-18T10:52:00.860Z,4
2023-02-18T10:53:07.928Z,3
2023-02-18T10:54:20.096Z,3
2023-02-18T10:55:28.266Z,5
2023-02-18T10:56:39.393Z,7
2023-02-18T10:57:51.609Z,14
2023-02-18T10:59:11.557Z,24
2023-02-18T11:00:25.264Z,22
2023-02-18T11:01:35.492Z,13
2023-02-18T11:02:45.347Z,18
2023-02-18T11:04:25.179Z,8
2023-02-18T11:05:40.756Z,9
2023-02-18T11:06:49.092Z,11
2023-02-18T11:07:56.559Z,9
2023-02-18T11:09:04.933Z,20
2023-02-18T11:10:18.852Z,14
2023-02-18T11:11:23.208Z,14
2023-02-18T11:12:33.085Z,39
2023-02-18T11:13:46.529Z,16
2023-02-18T11:14:59.598Z,12
2023-02-18T11:16:21.258Z,30
2023-02-18T11:17:30.253Z,6
2023-02-18T11:18:38.860Z,17
2023-02-18T11:19:47.713Z,25
2023-02-18T11:21:03.074Z,26
2023-02-18T11:22:10.884Z,11
2023-02-18T11:23:29.888Z,14
2023-02-18T11:24:37.308Z,10
2023-02-18T11:25:46.003Z,7
2023-02-18T11:27:01.555Z,10
2023-02-18T11:28:12.763Z,16
2023-02-18T11:29:20.925Z,12
2023-02-18T11:30:33.384Z,9
2023-02-18T11:31:45.954Z,11
2023-02-18T11:32:57.105Z,11
2023-02-18T11:34:13.349Z,6
2023-02-18T11:35:21.850Z,5
2023-02-18T11:36:29.593Z,3
2023-02-18T11:37:38.747Z,3
2023-02-18T11:38:49.768Z,2
2023-02-18T11:40:20.825Z,3
2023-02-18T11:41:29.652Z,4
2023-02-18T11:42:42.976Z,5
2023-02-18T11:44:01.604Z,6
2023-02-18T11:45:15.111Z,5
2023-02-18T11:46:36.032Z,4
2023-02-18T11:47:43.420Z,4
2023-02-18T11:48:54.992Z,4
2023-02-18T11:50:10.640Z,4
2023-02-18T11:51:19.219Z,4
2023-02-18T11:52:30.475Z,4
2023-02-18T11:53:42.981Z,4
2023-02-18T11:55:03.629Z,4
2023-02-18T11:56:23.966Z,4
2023-02-18T11:57:40.890Z,4
2023-02-18T11:58:54.614Z,5
2023-02-18T12:00:03.012Z,6
2023-02-18T12:03:11.195Z,7
2023-02-18T12:04:40.698Z,6
2023-02-18T12:06:10.058Z,5
2023-02-18T12:09:35.014Z,3
2023-02-18T12:14:36.177Z,4
2023-02-18T12:20:35.267Z,4
2023-02-18T12:22:58.161Z,5
2023-02-18T12:31:52.561Z,13
2023-02-18T12:36:06.276Z,13
2023-02-18T12:39:21.557Z,14
2023-02-18T12:45:54.999Z,10
2023-02-18T12:48:18.218Z,11
2023-02-18T12:59:32.954Z,14
2023-02-18T13:02:20.681Z,16
2023-02-18T13:07:52.743Z,18
2023-02-18T13:17:07.648Z,16
2023-02-18T13:21:37.461Z,17
2023-02-18T13:29:55.075Z,17
2023-02-18T13:31:40.506Z,16
2023-02-18T13:34:24.875Z,15
2023-02-18T13:36:45.666Z,14
2023-02-18T13:38:10.234Z,13
2023-02-18T13:39:27.998Z,14
2023-02-18T13:40:39.801Z,14
2023-02-18T13:42:47.102Z,13
2023-02-18T13:56:38.093Z,12
2023-02-18T13:57:54.803Z,14
2023-02-18T13:59:14.647Z,14
2023-02-18T14:00:42.819Z,15
2023-02-18T14:01:57.649Z,15
2023-02-18T14:03:22.938Z,17
2023-02-18T14:05:19.086Z,17
2023-02-18T14:06:52.903Z,16
2023-02-18T14:08:26.323Z,17
2023-02-18T14:09:44.103Z,15
2023-02-18T14:11:53.915Z,15
2023-02-18T14:13:23.595Z,14
2023-02-18T14:15:37.324Z,14
2023-02-18T14:17:02.635Z,12
2023-02-18T14:19:09.189Z,12
2023-02-18T14:20:33.834Z,13
2023-02-18T14:21:59.160Z,11
2023-02-18T14:23:47.993Z,13
2023-02-18T14:26:08.697Z,12
2023-02-18T14:30:37.805Z,12
2023-02-18T14:33:43.185Z,12
2023-02-18T14:39:01.124Z,14
2023-02-18T14:42:37.784Z,13
2023-02-18T14:46:59.445Z,11
2023-02-18T14:48:14.287Z,13
2023-02-18T14:51:58.298Z,12
2023-02-18T15:01:16.484Z,13
2023-02-18T15:04:23.117Z,12
2023-02-18T15:13:46.851Z,12
2023-02-18T15:15:35.450Z,12
2023-02-18T15:19:13.350Z,12
2023-02-18T15:28:28.672Z,12
2023-02-18T15:37:59.419Z,11
2023-02-18T15:39:56.274Z,12
2023-02-18T15:42:29.152Z,12
2023-02-18T15:50:29.964Z,13
2023-02-18T15:53:10.291Z,10
2023-02-18T15:58:10.202Z,9
2023-02-18T16:06:01.674Z,8
2023-02-18T16:08:40.568Z,8
2023-02-18T16:11:45.478Z,9
2023-02-18T16:15:20.257Z,8
2023-02-18T16:16:47.859Z,8
2023-02-18T16:17:57.791Z,11
2023-02-18T16:23:17.424Z,8
2023-02-18T16:24:25.501Z,10
2023-02-18T16:29:31.793Z,8
2023-02-18T16:33:32.025Z,7
2023-02-18T16:38:34.779Z,8
2023-02-18T16:43:14.963Z,7
2023-02-18T16:48:42.500Z,7
2023-02-18T16:57:48.343Z,7
2023-02-18T17:00:25.091Z,7
2023-02-18T17:02:10.240Z,8
2023-02-18T17:04:14.068Z,6
2023-02-18T17:07:33.047Z,7
2023-02-18T17:09:29.449Z,6
2023-02-18T17:12:25.143Z,8
2023-02-18T17:14:12.891Z,9
2023-02-18T17:18:31.756Z,11
2023-02-18T17:21:13.523Z,13
2023-02-18T17:23:35.799Z,14
2023-02-18T17:25:48.296Z,11
2023-02-18T17:30:53.074Z,9
2023-02-18T17:35:02.607Z,8
2023-02-18T17:37:32.688Z,10
2023-02-18T17:46:01.847Z,9
2023-02-18T17:49:11.496Z,9
2023-02-18T17:51:08.938Z,14
2023-02-18T17:57:28.444Z,9
2023-02-18T18:00:45.105Z,11
2023-02-18T18:06:16.864Z,9
2023-02-18T18:13:27.797Z,6
2023-02-18T18:14:43.748Z,5
2023-02-18T18:17:13.290Z,7
2023-02-18T18:18:56.768Z,6
2023-02-18T18:20:16.416Z,6
2023-02-18T18:21:28.202Z,6
2023-02-18T18:22:56.775Z,6
2023-02-18T18:24:04.090Z,5
2023-02-18T18:25:12.828Z,6
2023-02-18T18:27:10.006Z,6
2023-02-18T18:28:19.797Z,5
2023-02-18T18:29:36.323Z,7
2023-02-18T18:30:54.109Z,6
2023-02-18T18:32:04.565Z,6
2023-02-18T18:33:12.509Z,5
2023-02-18T18:35:56.026Z,5
2023-02-18T18:37:51.472Z,6
2023-02-18T18:40:03.356Z,5
2023-02-18T18:41:11.386Z,5
2023-02-18T18:43:02.870Z,6
2023-02-18T18:44:10.745Z,8
2023-02-18T18:47:39.003Z,6
2023-02-18T18:53:20.638Z,7
2023-02-18T18:56:06.187Z,5
2023-02-18T18:59:41.243Z,17
2023-02-18T19:00:57.895Z,5
2023-02-18T19:02:21.862Z,4
2023-02-18T19:05:21.328Z,5
2023-02-18T19:06:34.760Z,5
2023-02-18T19:08:11.361Z,6
2023-02-18T19:09:19.513Z,5
2023-02-18T19:10:30.858Z,5
2023-02-18T19:12:12.994Z,6
2023-02-18T19:14:39.121Z,4
2023-02-18T19:18:09.823Z,3
2023-02-18T19:28:17.972Z,3
2023-02-18T19:34:04.051Z,3
2023-02-18T19:45:07.400Z,4
2023-02-18T19:47:07.617Z,3
2023-02-18T19:50:52.633Z,4
2023-02-18T19:52:53.244Z,3
2023-02-18T20:02:41.566Z,2
2023-02-18T20:04:19.621Z,3
2023-02-18T20:19:49.332Z,3
2023-02-18T20:24:55.327Z,4
2023-02-18T20:32:45.851Z,2
2023-02-18T20:39:59.065Z,2
2023-02-18T20:42:08.133Z,2
2023-02-18T20:44:41.502Z,3
2023-02-18T20:47:10.578Z,2
2023-02-18T20:50:57.120Z,2
2023-02-18T20:53:03.640Z,1
2023-02-18T20:55:49.384Z,1
2023-02-18T20:56:57.210Z,1
2023-02-18T20:58:05.681Z,1
2023-02-18T20:59:55.684Z,1
2023-02-18T21:02:41.604Z,2
2023-02-18T21:03:53.445Z,2
2023-02-18T21:05:05.666Z,2
2023-02-18T21:06:16.172Z,1
2023-02-18T21:07:52.832Z,2
2023-02-18T21:09:38.632Z,1
2023-02-18T21:11:09.090Z,1
2023-02-18T21:14:49.296Z,2
2023-02-18T21:15:56.970Z,1
2023-02-18T21:17:33.450Z,1
2023-02-18T21:18:41.317Z,1
2023-02-18T21:21:16.091Z,1
2023-02-18T21:26:09.457Z,2
2023-02-18T21:27:38.092Z,2
2023-02-18T21:30:25.005Z,2
2023-02-18T21:34:03.970Z,2
2023-02-18T21:38:23.183Z,2
2023-02-18T21:40:19.094Z,2
2023-02-18T21:43:03.894Z,2
2023-02-18T21:46:05.323Z,2
2023-02-18T21:47:22.073Z,2
2023-02-18T21:50:50.936Z,2
2023-02-18T21:53:10.563Z,3
2023-02-18T21:55:30.833Z,3
2023-02-18T22:05:42.860Z,2
2023-02-18T22:14:35.385Z,3
2023-02-18T22:16:12.788Z,3
2023-02-18T22:20:33.440Z,2
2023-02-18T22:22:12.845Z,3
2023-02-18T22:23:50.992Z,3
2023-02-18T22:28:17.892Z,4
2023-02-18T22:32:40.647Z,3
2023-02-18T22:35:17.701Z,4
2023-02-18T22:36:28.577Z,4
2023-02-18T22:37:41.064Z,6
2023-02-18T22:42:49.711Z,2
2023-02-18T22:44:01.498Z,2
2023-02-18T22:49:11.799Z,2
2023-02-18T22:50:24.271Z,2
2023-02-18T22:52:02.634Z,1
2023-02-18T22:55:29.928Z,3
2023-02-18T23:00:40.172Z,2
2023-02-18T23:05:26.316Z,2
2023-02-18T23:08:44.234Z,3
2023-02-18T23:11:12.257Z,3
2023-02-18T23:15:43.626Z,3
2023-02-18T23:20:14.330Z,3
2023-02-18T23:25:43.724Z,2
2023-02-18T23:29:56.486Z,2
2023-02-18T23:34:41.681Z,2
2023-02-18T23:35:48.802Z,2
2023-02-18T23:38:52.199Z,1
2023-02-18T23:42:07.955Z,2
2023-02-18T23:44:54.973Z,1
2023-02-18T23:46:25.733Z,2
2023-02-18T23:50:12.193Z,1
2023-02-18T23:52:02.174Z,3
2023-02-18T23:54:43.005Z,4
2023-02-18T23:59:18.161Z,2
